Time;durP1;ratioP1;P1;durP2;ratioP2;P2;SDS_P1;SDS_P2;PMS_P1;PMS_P2;Temp;Humidity;BMP_temperature;BMP_pressure;BME280_temperature;BME280_humidity;BME280_pressure;Samples;Min_cycle;Max_cycle;Signal;HPM_P1;HPM_P2
2023/03/24 00:00:50;;;;;;;;;;;;;;;;;;5128742;27;19908;-45
2023/03/24 00:03:16;;;;;;;;;;;;;;;;;;5129178;27;19911;-50
2023/03/24 00:05:43;;;;;;;;;;;;;;;;;;5128581;27;19911;-48
2023/03/24 00:08:09;;;;;;;;;;;;;;;;;;5128509;27;19919;-45
2023/03/24 00:10:35;;;;;;;;;;;;;;;;;;5128434;27;19911;-46
2023/03/24 00:13:01;;;;;;;;;;;;;;;;;;5128517;27;20035;-48
2023/03/24 00:15:27;;;;;;;;;;;;;;;;;;5128238;27;20089;-50
2023/03/24 00:17:56;;;;;;;;;;;;;;;;;;5127731;27;19912;-47
2023/03/24 00:20:22;;;;;;;;;;;;;;;;;;5128252;27;19918;-47
2023/03/24 00:22:49;;;;;;;;;;;;;;;;;;5128244;27;20002;-45
2023/03/24 00:25:15;;;;;;;;;;;;;;;;;;5128855;27;19915;-48
2023/03/24 00:27:43;;;;;;;;;;;;;;;;;;5128601;27;19963;-45
2023/03/24 00:30:10;;;;;;;;;;;;;;;;;;5127971;27;19951;-48
2023/03/24 00:32:37;;;;;;;;;;;;;;;;;;5128220;27;19994;-45
2023/03/24 00:35:03;;;;;;;;;;;;;;;;;;5111062;27;19939;-48
2023/03/24 00:37:29;;;;;;;;;;;;;;;;;;5129769;27;19958;-50
2023/03/24 00:39:55;;;;;;;;;;;;;;;;;;5129687;27;19954;-45
2023/03/24 00:42:23;;;;;;;;;;;;;;;;;;5129343;27;19911;-48
2023/03/24 00:44:49;;;;;;;;;;;;;;;;;;5129096;27;19972;-46
2023/03/24 00:47:16;;;;;;;;;;;;;;;;;;5129893;27;19923;-46
2023/03/24 00:49:43;;;;;;;;;;;;;;;;;;5129381;27;20005;-46
2023/03/24 00:52:10;;;;;;;;;;;;;;;;;;5129463;27;19908;-46
2023/03/24 00:54:36;;;;;;;;;;;;;;;;;;5129280;27;19912;-49
2023/03/24 00:57:02;;;;;;;;;;;;;;;;;;5129287;27;19938;-48
2023/03/24 00:59:28;;;;;;;;;;;;;;;;;;5129011;27;19908;-47
2023/03/24 01:01:55;;;;;;;;;;;;;;;;;;5128467;27;20015;-48
2023/03/24 01:04:25;;;;;;;;;;;;;;;;;;5129109;27;19907;-47
2023/03/24 06:11:23;;;;;;;;;;;;;;;;;;5121610;27;19915;-46
2023/03/24 06:13:49;;;;;;;;;;;;;;;;;;5123212;28;19950;-46
2023/03/24 06:16:17;;;;;;;;;;;;;;;;;;5108978;28;19920;-46
2023/03/24 06:18:51;;;;;;;;;;;;;;;;;;5108992;28;19912;-45
2023/03/24 06:21:17;;;;;;;;;;;;;;;;;;5108871;28;19934;-46
2023/03/24 06:23:43;;;;;;;;;;;;;;;;;;5109000;28;19912;-46
2023/03/24 06:26:10;;;;;;;;;;;;;;;;;;5108799;28;19912;-46
2023/03/24 06:28:38;;;;;;;;;;;;;;;;;;5108854;28;19915;-48
2023/03/24 06:31:04;;;;;;;;;;;;;;;;;;5108435;28;20286;-46
2023/03/24 06:33:30;;;;;;;;;;;;;;;;;;5108608;28;20387;-46
2023/03/24 06:35:56;;;;;;;;;;;;;;;;;;5108911;28;19957;-45
2023/03/24 06:38:22;;;;;;;;;;;;;;;;;;5108932;28;19968;-45
2023/03/24 06:40:49;;;;;;;;;;;;;;;;;;5108644;28;19915;-44
2023/03/24 06:43:15;;;;;;;;;;;;;;;;;;5103137;28;19945;-44
2023/03/24 06:45:41;;;;;;;;;;;;;;;;;;5107971;28;19915;-46
2023/03/24 06:48:07;;;;;;;;;;;;;;;;;;5106885;28;19912;-46
2023/03/24 06:50:34;;;;;;;;;;;;;;;;;;5108206;28;19912;-45
2023/03/24 06:53:00;;;;;;;;;;;;;;;;;;5107168;28;21313;-46
2023/03/24 06:55:26;;;;;;;;;;;;;;;;;;5107616;28;19912;-48
2023/03/24 06:57:52;;;;;;;;;;;;;;;;;;5107024;28;19912;-48
2023/03/24 07:00:18;;;;;;;;;;;;;;;;;;5107401;28;20264;-45
2023/03/24 07:02:45;;;;;;;;;;;;;;;;;;5106024;28;19927;-46
2023/03/24 07:05:11;;;;;;;;;;;;;;;;;;5108111;28;19916;-47
2023/03/24 07:07:37;;;;;;;;;;;;;;;;;;5109504;28;19956;-46
2023/03/24 07:10:03;;;;;;;;;;;;;;;;;;5110385;28;19912;-45
2023/03/24 07:12:29;;;;;;;;;;;;;;;;;;5110359;28;19998;-46
2023/03/24 07:14:56;;;;;;;;;;;;;;;;;;5110129;28;19919;-50
2023/03/24 07:17:22;;;;;;;;;;;;;;;;;;5111026;28;20266;-46
2023/03/24 07:19:48;;;;;;;;;;;;;;;;;;5111245;28;19912;-46
2023/03/24 07:22:14;;;;;;;;;;;;;;;;;;5110866;28;19937;-47
2023/03/24 07:24:40;;;;;;;;;;;;;;;;;;5110832;28;19915;-47
2023/03/24 07:27:06;;;;;;;;;;;;;;;;;;5111561;28;19973;-45
2023/03/24 07:29:32;;;;;;;;;;;;;;;;;;5109546;28;19911;-47
2023/03/24 07:31:59;;;;;;;;;;;;;;;;;;5110693;28;20515;-48
2023/03/24 07:34:26;;;;;;;;;;;;;;;;;;5109670;28;20389;-47
2023/03/24 07:36:51;;;;;;;;;;;;;;;;;;5111062;28;19976;-49
2023/03/24 07:39:17;;;;;;;;;;;;;;;;;;5109731;28;20002;-45
2023/03/24 07:41:43;;;;;;;;;;;;;;;;;;5111135;28;19915;-48
2023/03/24 07:44:09;;;;;;;;;;;;;;;;;;5110321;28;19919;-47
2023/03/24 07:46:35;;;;;;;;;;;;;;;;;;5111242;28;19920;-47
2023/03/24 07:49:01;;;;;;;;;;;;;;;;;;5110194;28;19930;-46
2023/03/24 07:51:27;;;;;;;;;;;;;;;;;;5111408;28;20350;-44
2023/03/24 07:53:53;;;;;;;;;;;;;;;;;;5108526;28;19914;-46
2023/03/24 07:56:19;;;;;;;;;;;;;;;;;;5110998;28;19915;-46
2023/03/24 07:58:46;;;;;;;;;;;;;;;;;;5091110;28;19964;-49
2023/03/24 08:01:12;;;;;;;;;;;;;;;;;;5111319;28;19916;-46
2023/03/24 08:03:39;;;;;;;;;;;;;;;;;;5109467;28;20356;-45
2023/03/24 08:06:05;;;;;;;;;;;;;;;;;;5111077;28;19920;-47
2023/03/24 08:08:31;;;;;;;;;;;;;;;;;;5111117;28;20370;-47
2023/03/24 08:10:57;;;;;;;;;;;;;;;;;;5111127;28;19953;-46
2023/03/24 08:13:23;;;;;;;;;;;;;;;;;;5113814;27;19951;-45
2023/03/24 08:15:50;;;;;;;;;;;;;;;;;;5130873;27;19919;-47
2023/03/24 08:18:16;;;;;;;;;;;;;;;;;;5129802;27;19964;-48
2023/03/24 08:20:42;;;;;;;;;;;;;;;;;;5130179;27;19916;-46
2023/03/24 08:23:09;;;;;;;;;;;;;;;;;;5130917;27;19915;-46
2023/03/24 08:25:38;;;;;;;;;;;;;;;;;;5131242;27;20030;-45
2023/03/24 08:28:04;;;;;;;;;;;;;;;;;;5131625;27;19911;-45
2023/03/24 08:30:30;;;;;;;;;;;;;;;;;;5131374;27;19919;-47
2023/03/24 08:32:56;;;;;;;;;;;;;;;;;;5131214;27;20305;-46
2023/03/24 08:35:22;;;;;;;;;;;;;;;;;;5130869;27;19986;-45
2023/03/24 08:37:48;;;;;;;;;;;;;;;;;;5130999;27;19976;-47
2023/03/24 08:40:17;;;;;;;;;;;;;;;;;;5130498;27;19939;-45
2023/03/24 08:42:43;;;;;;;;;;;;;;;;;;5128670;27;19962;-46
2023/03/24 08:45:10;;;;;;;;;;;;;;;;;;5129480;27;19942;-46
2023/03/24 08:47:36;;;;;;;;;;;;;;;;;;5129854;27;19967;-45
2023/03/24 08:50:02;;;;;;;;;;;;;;;;;;5128795;27;20394;-45
2023/03/24 08:52:28;;;;;;;;;;;;;;;;;;5128546;27;19954;-45
2023/03/24 08:54:54;;;;;;;;;;;;;;;;;;5129387;27;19967;-46
2023/03/24 08:57:20;;;;;;;;;;;;;;;;;;5129456;27;19912;-47
2023/03/24 08:59:46;;;;;;;;;;;;;;;;;;5128960;27;19911;-45
2023/03/24 09:02:12;;;;;;;;;;;;;;;;;;5129407;27;19964;-47
2023/03/24 09:04:38;;;;;;;;;;;;;;;;;;5129057;27;19911;-45
2023/03/24 09:07:04;;;;;;;;;;;;;;;;;;5129235;27;19915;-46
2023/03/24 09:09:30;;;;;;;;;;;;;;;;;;5128962;27;19956;-46
2023/03/24 09:11:56;;;;;;;;;;;;;;;;;;5128404;27;19954;-46
2023/03/24 09:14:22;;;;;;;;;;;;;;;;;;5128966;27;19915;-48
2023/03/24 09:16:49;;;;;;;;;;;;;;;;;;5128967;27;20013;-46
2023/03/24 09:19:14;;;;;;;;;;;;;;;;;;5128950;27;19911;-47
2023/03/24 09:21:41;;;;;;;;;;;;;;;;;;5129133;27;19923;-46
2023/03/24 09:24:07;;;;;;;;;;;;;;;;;;5128894;27;19914;-48
2023/03/24 09:26:33;;;;;;;;;;;;;;;;;;5127166;27;20294;-47
2023/03/24 09:29:01;;;;;;;;;;;;;;;;;;5129090;27;19907;-46
2023/03/24 09:31:27;;;;;;;;;;;;;;;;;;5128451;27;19968;-48
2023/03/24 09:33:53;;;;;;;;;;;;;;;;;;5128751;27;19988;-46
2023/03/24 09:36:20;;;;;;;;;;;;;;;;;;5127898;27;19908;-46
2023/03/24 09:38:46;;;;;;;;;;;;;;;;;;5128588;27;19992;-46
2023/03/24 09:41:13;;;;;;;;;;;;;;;;;;5128811;27;21527;-49
2023/03/24 09:43:40;;;;;;;;;;;;;;;;;;5129224;27;20298;-46
2023/03/24 09:46:06;;;;;;;;;;;;;;;;;;5128812;27;19916;-46
2023/03/24 09:48:33;;;;;;;;;;;;;;;;;;5128548;27;19987;-47
2023/03/24 09:50:59;;;;;;;;;;;;;;;;;;5128409;27;19964;-46
2023/03/24 09:53:25;;;;;;;;;;;;;;;;;;5128408;27;20367;-46
2023/03/24 09:55:51;;;;;;;;;;;;;;;;;;5128774;27;20003;-45
2023/03/24 09:58:17;;;;;;;;;;;;;;;;;;5128315;27;20378;-48
2023/03/24 10:00:43;;;;;;;;;;;;;;;;;;5127945;27;19964;-45
2023/03/24 10:03:09;;;;;;;;;;;;;;;;;;5127825;27;20398;-45
2023/03/24 10:05:35;;;;;;;;;;;;;;;;;;5127750;28;19920;-45
2023/03/24 10:08:01;;;;;;;;;;;;;;;;;;5128122;27;19918;-45
2023/03/24 10:10:28;;;;;;;;;;;;;;;;;;5128295;28;19908;-45
2023/03/24 10:12:55;;;;;;;;;;;;;;;;;;5128206;28;19998;-46
2023/03/24 10:15:20;;;;;;;;;;;;;;;;;;5127351;28;19982;-46
2023/03/24 10:17:46;;;;;;;;;;;;;;;;;;5127492;28;19919;-45
2023/03/24 10:20:12;;;;;;;;;;;;;;;;;;5127565;28;19918;-46
2023/03/24 10:22:39;;;;;;;;;;;;;;;;;;5126918;28;19916;-46
2023/03/24 10:25:06;;;;;;;;;;;;;;;;;;5126828;28;20014;-45
2023/03/24 10:27:32;;;;;;;;;;;;;;;;;;5126540;28;19912;-48
2023/03/24 10:29:58;;;;;;;;;;;;;;;;;;5126784;28;19956;-46
2023/03/24 10:32:24;;;;;;;;;;;;;;;;;;5127946;27;19965;-48
2023/03/24 10:34:50;;;;;;;;;;;;;;;;;;5127851;28;19916;-47
2023/03/24 10:37:16;;;;;;;;;;;;;;;;;;5128176;28;20298;-45
2023/03/24 10:39:42;;;;;;;;;;;;;;;;;;5128369;27;19911;-45
2023/03/24 10:42:08;;;;;;;;;;;;;;;;;;5127952;27;20294;-46
2023/03/24 10:44:34;;;;;;;;;;;;;;;;;;5130965;27;19916;-48
2023/03/24 10:47:00;;;;;;;;;;;;;;;;;;5132828;27;19958;-45
2023/03/24 10:49:26;;;;;;;;;;;;;;;;;;5133601;27;20007;-47
2023/03/24 10:51:55;;;;;;;;;;;;;;;;;;5133055;27;19915;-45
2023/03/24 10:54:21;;;;;;;;;;;;;;;;;;5133457;27;19918;-46
2023/03/24 10:56:47;;;;;;;;;;;;;;;;;;5133133;27;19907;-45
2023/03/24 10:59:14;;;;;;;;;;;;;;;;;;5130859;27;20352;-49
2023/03/24 11:01:41;;;;;;;;;;;;;;;;;;5130543;27;19916;-46
2023/03/24 11:04:07;;;;;;;;;;;;;;;;;;5130182;27;19976;-46
2023/03/24 11:06:33;;;;;;;;;;;;;;;;;;5130840;27;19911;-45
2023/03/24 11:08:59;;;;;;;;;;;;;;;;;;5130817;27;20375;-47
2023/03/24 11:11:26;;;;;;;;;;;;;;;;;;5130622;27;19915;-46
2023/03/24 11:13:52;;;;;;;;;;;;;;;;;;5131067;27;19925;-47
2023/03/24 11:16:19;;;;;;;;;;;;;;;;;;5130406;27;19907;-46
2023/03/24 11:18:44;;;;;;;;;;;;;;;;;;5130300;27;19911;-46
2023/03/24 11:21:10;;;;;;;;;;;;;;;;;;5130516;28;20197;-48
2023/03/24 11:23:36;;;;;;;;;;;;;;;;;;5129201;28;19919;-47
2023/03/24 11:26:02;;;;;;;;;;;;;;;;;;5130221;27;19968;-46
2023/03/24 11:28:29;;;;;;;;;;;;;;;;;;5130542;28;19915;-48
2023/03/24 11:30:55;;;;;;;;;;;;;;;;;;5128765;28;19915;-45
2023/03/24 11:33:22;;;;;;;;;;;;;;;;;;5131294;28;19912;-45
2023/03/24 11:35:48;;;;;;;;;;;;;;;;;;5131763;28;19929;-46
2023/03/24 11:38:14;;;;;;;;;;;;;;;;;;5130954;28;20433;-46
2023/03/24 11:40:40;;;;;;;;;;;;;;;;;;5130148;27;19911;-47
2023/03/24 11:43:07;;;;;;;;;;;;;;;;;;5129860;28;19916;-47
2023/03/24 11:45:34;;;;;;;;;;;;;;;;;;5129776;27;19949;-46
2023/03/24 11:48:00;;;;;;;;;;;;;;;;;;5129745;28;19914;-46
2023/03/24 11:50:25;;;;;;;;;;;;;;;;;;5129696;27;19907;-45
2023/03/24 11:52:51;;;;;;;;;;;;;;;;;;5129251;27;19911;-45
2023/03/24 11:55:18;;;;;;;;;;;;;;;;;;5129812;28;20009;-46
2023/03/24 11:57:44;;;;;;;;;;;;;;;;;;5129620;28;19907;-46
2023/03/24 12:00:11;;;;;;;;;;;;;;;;;;5129810;28;19907;-45
2023/03/24 12:02:37;;;;;;;;;;;;;;;;;;5129504;27;20343;-46
2023/03/24 12:05:04;;;;;;;;;;;;;;;;;;5129281;27;19998;-46
2023/03/24 12:07:30;;;;;;;;;;;;;;;;;;5129460;28;19975;-45
2023/03/24 12:09:56;;;;;;;;;;;;;;;;;;5129353;27;19908;-47
2023/03/24 12:12:22;;;;;;;;;;;;;;;;;;5129426;28;19918;-45
2023/03/24 12:14:48;;;;;;;;;;;;;;;;;;5090016;27;1130644;-46
2023/03/24 12:17:14;;;;;;;;;;;;;;;;;;5130444;27;19911;-47
2023/03/24 12:19:40;;;;;;;;;;;;;;;;;;5130578;27;19907;-44
2023/03/24 12:22:06;;;;;;;;;;;;;;;;;;5129713;27;19915;-48
2023/03/24 12:24:31;;;;;;;;;;;;;;;;;;5130160;27;20339;-49
2023/03/24 12:26:57;;;;;;;;;;;;;;;;;;5129985;27;20346;-46
2023/03/24 12:29:25;;;;;;;;;;;;;;;;;;5130014;27;19952;-45
2023/03/24 12:31:52;;;;;;;;;;;;;;;;;;5111783;27;20387;-45
2023/03/24 12:34:18;;;;;;;;;;;;;;;;;;5129761;27;19911;-45
2023/03/24 12:36:43;;;;;;;;;;;;;;;;;;5129738;27;20356;-46
2023/03/24 12:39:11;;;;;;;;;;;;;;;;;;5129970;27;19908;-46
2023/03/24 12:41:37;;;;;;;;;;;;;;;;;;5129409;27;19922;-49
2023/03/24 12:44:02;;;;;;;;;;;;;;;;;;5129735;27;19907;-48
2023/03/24 12:46:28;;;;;;;;;;;;;;;;;;5129633;27;19908;-45
2023/03/24 12:48:54;;;;;;;;;;;;;;;;;;5129486;27;20123;-47
2023/03/24 12:51:20;;;;;;;;;;;;;;;;;;5129164;27;19946;-46
2023/03/24 12:53:46;;;;;;;;;;;;;;;;;;5129675;27;20359;-47
2023/03/24 12:56:13;;;;;;;;;;;;;;;;;;5129560;27;19917;-49
2023/03/24 12:58:40;;;;;;;;;;;;;;;;;;5129331;27;19908;-46
2023/03/24 13:01:09;;;;;;;;;;;;;;;;;;5129304;27;19918;-45
2023/03/24 13:03:35;;;;;;;;;;;;;;;;;;5129242;27;20421;-46
2023/03/24 13:06:01;;;;;;;;;;;;;;;;;;5128690;27;19946;-46
2023/03/24 13:08:31;;;;;;;;;;;;;;;;;;5129386;27;19916;-46
2023/03/24 13:10:58;;;;;;;;;;;;;;;;;;5129099;27;19919;-47
2023/03/24 13:13:24;;;;;;;;;;;;;;;;;;5129054;27;20172;-45
2023/03/24 13:15:50;;;;;;;;;;;;;;;;;;5129102;27;20297;-45
2023/03/24 13:18:16;;;;;;;;;;;;;;;;;;5129021;27;20740;-45
2023/03/24 13:20:42;;;;;;;;;;;;;;;;;;5129129;27;19912;-47
2023/03/24 13:23:08;;;;;;;;;;;;;;;;;;5128773;27;20006;-49
2023/03/24 13:25:34;;;;;;;;;;;;;;;;;;5128732;27;19911;-47
2023/03/24 13:28:00;;;;;;;;;;;;;;;;;;5129003;27;19907;-49
2023/03/24 13:30:26;;;;;;;;;;;;;;;;;;5128670;27;19915;-48
2023/03/24 13:32:52;;;;;;;;;;;;;;;;;;5128889;27;20054;-47
2023/03/24 13:35:19;;;;;;;;;;;;;;;;;;5129149;27;20010;-46
2023/03/24 13:37:45;;;;;;;;;;;;;;;;;;5128628;27;19946;-47
2023/03/24 13:40:12;;;;;;;;;;;;;;;;;;5128908;27;19907;-47
2023/03/24 13:42:39;;;;;;;;;;;;;;;;;;5128473;27;20290;-46
2023/03/24 13:45:05;;;;;;;;;;;;;;;;;;5128733;27;19922;-46
2023/03/24 13:47:32;;;;;;;;;;;;;;;;;;5128814;27;19911;-45
2023/03/24 13:49:58;;;;;;;;;;;;;;;;;;5128579;27;20042;-48
2023/03/24 13:52:25;;;;;;;;;;;;;;;;;;5128064;27;19903;-45
2023/03/24 13:54:51;;;;;;;;;;;;;;;;;;5128339;27;19911;-47
2023/03/24 13:57:19;;;;;;;;;;;;;;;;;;5128569;27;19919;-46
2023/03/24 13:59:45;;;;;;;;;;;;;;;;;;5126878;27;19911;-47
2023/03/24 14:02:10;;;;;;;;;;;;;;;;;;5127748;27;19911;-46
2023/03/24 14:04:37;;;;;;;;;;;;;;;;;;5128205;27;19908;-46
2023/03/24 14:07:03;;;;;;;;;;;;;;;;;;5128113;28;19984;-47
2023/03/24 14:09:31;;;;;;;;;;;;;;;;;;5127858;28;19953;-46
2023/03/24 14:11:58;;;;;;;;;;;;;;;;;;5128039;27;19987;-46
2023/03/24 14:14:24;;;;;;;;;;;;;;;;;;5128280;27;19915;-46
2023/03/24 14:16:53;;;;;;;;;;;;;;;;;;5128624;27;19907;-46
2023/03/24 14:19:19;;;;;;;;;;;;;;;;;;5132641;27;20088;-45
2023/03/24 14:21:45;;;;;;;;;;;;;;;;;;5132196;27;19912;-46
2023/03/24 14:24:11;;;;;;;;;;;;;;;;;;5132630;27;19918;-47
2023/03/24 14:26:37;;;;;;;;;;;;;;;;;;5132783;27;19919;-45
2023/03/24 14:29:03;;;;;;;;;;;;;;;;;;5132752;27;19911;-46
2023/03/24 14:31:29;;;;;;;;;;;;;;;;;;5132326;27;20016;-48
2023/03/24 14:34:01;;;;;;;;;;;;;;;;;;5132613;27;19911;-47
2023/03/24 14:36:29;;;;;;;;;;;;;;;;;;5132018;27;20309;-46
2023/03/24 14:38:55;;;;;;;;;;;;;;;;;;5113914;27;19911;-46
2023/03/24 14:41:23;;;;;;;;;;;;;;;;;;5132391;27;19907;-48
2023/03/24 14:43:48;;;;;;;;;;;;;;;;;;5132039;27;19911;-46
2023/03/24 14:46:14;;;;;;;;;;;;;;;;;;5132029;27;20434;-48
2023/03/24 14:48:41;;;;;;;;;;;;;;;;;;5132292;27;19915;-47
2023/03/24 14:51:07;;;;;;;;;;;;;;;;;;5131562;27;19923;-45
2023/03/24 14:53:33;;;;;;;;;;;;;;;;;;5131978;27;19912;-45
2023/03/24 14:55:59;;;;;;;;;;;;;;;;;;5131919;27;20041;-45
2023/03/24 14:58:25;;;;;;;;;;;;;;;;;;5131864;27;19912;-44
2023/03/24 15:00:51;;;;;;;;;;;;;;;;;;5131848;27;20290;-45
2023/03/24 15:03:17;;;;;;;;;;;;;;;;;;5113247;27;19911;-45
2023/03/24 15:05:43;;;;;;;;;;;;;;;;;;5131626;27;19918;-46
2023/03/24 15:08:09;;;;;;;;;;;;;;;;;;5131666;27;19919;-49
2023/03/24 15:10:35;;;;;;;;;;;;;;;;;;5131422;27;19916;-45
2023/03/24 15:13:01;;;;;;;;;;;;;;;;;;5131622;27;20430;-47
2023/03/24 15:15:28;;;;;;;;;;;;;;;;;;5131290;27;19915;-46
2023/03/24 15:17:53;;;;;;;;;;;;;;;;;;5131658;27;19911;-49
2023/03/24 15:20:19;;;;;;;;;;;;;;;;;;5131719;27;19914;-46
2023/03/24 15:22:45;;;;;;;;;;;;;;;;;;5131139;27;19933;-46
2023/03/24 15:25:12;;;;;;;;;;;;;;;;;;5131372;27;19931;-47
2023/03/24 15:27:38;;;;;;;;;;;;;;;;;;5130608;27;19926;-50
2023/03/24 15:30:04;;;;;;;;;;;;;;;;;;5131037;27;19911;-50
2023/03/24 15:32:37;;;;;;;;;;;;;;;;;;5131001;27;19907;-46
2023/03/24 15:35:04;;;;;;;;;;;;;;;;;;5130776;27;19911;-46
2023/03/24 15:37:30;;;;;;;;;;;;;;;;;;5131015;27;19919;-45
2023/03/24 15:39:56;;;;;;;;;;;;;;;;;;5130968;27;19907;-48
2023/03/24 15:42:22;;;;;;;;;;;;;;;;;;5130932;27;19968;-46
2023/03/24 15:44:48;;;;;;;;;;;;;;;;;;5131571;27;19911;-48
2023/03/24 15:47:14;;;;;;;;;;;;;;;;;;5112403;27;20275;-45
2023/03/24 15:49:40;;;;;;;;;;;;;;;;;;5130966;27;19967;-45
2023/03/24 15:52:06;;;;;;;;;;;;;;;;;;5130619;27;19908;-47
2023/03/24 15:54:32;;;;;;;;;;;;;;;;;;5130949;27;20044;-46
2023/03/24 15:56:58;;;;;;;;;;;;;;;;;;5130662;27;20410;-48
2023/03/24 15:59:27;;;;;;;;;;;;;;;;;;5130625;27;20341;-45
2023/03/24 16:01:53;;;;;;;;;;;;;;;;;;5130390;27;19916;-46
2023/03/24 16:04:20;;;;;;;;;;;;;;;;;;5130298;27;20010;-48
2023/03/24 16:06:47;;;;;;;;;;;;;;;;;;5130494;27;19972;-46
2023/03/24 16:09:13;;;;;;;;;;;;;;;;;;5130924;27;19996;-47
2023/03/24 16:11:40;;;;;;;;;;;;;;;;;;5130662;27;19943;-47
2023/03/24 16:14:06;;;;;;;;;;;;;;;;;;5130261;27;19999;-46
2023/03/24 16:16:32;;;;;;;;;;;;;;;;;;5130368;27;19949;-48
2023/03/24 16:18:58;;;;;;;;;;;;;;;;;;5130003;27;19911;-46
2023/03/24 16:21:25;;;;;;;;;;;;;;;;;;5129901;27;20442;-45
2023/03/24 16:23:51;;;;;;;;;;;;;;;;;;5130091;27;19952;-46
2023/03/24 16:26:18;;;;;;;;;;;;;;;;;;5129991;27;19915;-46
2023/03/24 16:28:44;;;;;;;;;;;;;;;;;;5130350;27;20010;-45
2023/03/24 16:31:10;;;;;;;;;;;;;;;;;;5130083;27;19990;-47
2023/03/24 16:33:38;;;;;;;;;;;;;;;;;;5129857;27;19908;-45
2023/03/24 16:36:05;;;;;;;;;;;;;;;;;;5129629;27;20306;-46
2023/03/24 16:38:32;;;;;;;;;;;;;;;;;;5129905;27;19911;-47
2023/03/24 16:40:57;;;;;;;;;;;;;;;;;;5128782;27;19951;-45
2023/03/24 16:43:24;;;;;;;;;;;;;;;;;;5129649;27;19958;-45
2023/03/24 16:45:50;;;;;;;;;;;;;;;;;;5129749;27;19908;-46
2023/03/24 16:48:16;;;;;;;;;;;;;;;;;;5129551;27;20348;-45
2023/03/24 16:50:42;;;;;;;;;;;;;;;;;;5129842;27;19918;-45
2023/03/24 16:53:08;;;;;;;;;;;;;;;;;;5129647;27;19907;-46
2023/03/24 16:55:34;;;;;;;;;;;;;;;;;;5129562;27;19911;-46
2023/03/24 16:58:01;;;;;;;;;;;;;;;;;;5129604;27;20311;-48
2023/03/24 17:00:28;;;;;;;;;;;;;;;;;;5129416;27;19956;-46
2023/03/24 17:02:54;;;;;;;;;;;;;;;;;;5129274;27;19915;-49
2023/03/24 17:05:20;;;;;;;;;;;;;;;;;;5129283;27;19907;-46
2023/03/24 17:07:46;;;;;;;;;;;;;;;;;;5129480;27;19907;-46
2023/03/24 17:10:12;;;;;;;;;;;;;;;;;;5129606;27;19918;-46
2023/03/24 17:12:38;;;;;;;;;;;;;;;;;;5111039;27;19919;-46
2023/03/24 17:15:04;;;;;;;;;;;;;;;;;;5129197;27;19920;-45
2023/03/24 17:17:30;;;;;;;;;;;;;;;;;;5128900;27;19951;-45
2023/03/24 17:19:59;;;;;;;;;;;;;;;;;;5128860;27;19907;-46
2023/03/24 17:22:24;;;;;;;;;;;;;;;;;;5128143;27;20385;-46
2023/03/24 17:24:56;;;;;;;;;;;;;;;;;;5113836;27;19919;-46
2023/03/24 17:27:22;;;;;;;;;;;;;;;;;;5109973;28;20305;-46
2023/03/24 17:29:48;;;;;;;;;;;;;;;;;;5110054;28;19912;-46
2023/03/24 17:32:14;;;;;;;;;;;;;;;;;;5111808;27;19916;-46
2023/03/24 17:34:40;;;;;;;;;;;;;;;;;;5108529;28;19916;-46
2023/03/24 17:37:06;;;;;;;;;;;;;;;;;;5112010;27;19911;-46
2023/03/24 17:39:32;;;;;;;;;;;;;;;;;;5128766;27;19915;-47
2023/03/24 17:42:00;;;;;;;;;;;;;;;;;;5118072;27;19992;-46
2023/03/24 17:44:26;;;;;;;;;;;;;;;;;;5108243;28;19914;-46
2023/03/24 17:46:51;;;;;;;;;;;;;;;;;;5128247;27;19915;-48
2023/03/24 17:49:17;;;;;;;;;;;;;;;;;;5128716;27;19908;-47
2023/03/24 17:51:43;;;;;;;;;;;;;;;;;;5115042;27;19916;-48
2023/03/24 17:54:10;;;;;;;;;;;;;;;;;;5128937;27;19911;-47
2023/03/24 17:56:36;;;;;;;;;;;;;;;;;;5118541;27;20139;-48
2023/03/24 17:59:03;;;;;;;;;;;;;;;;;;5107965;28;19914;-50
2023/03/24 18:01:29;;;;;;;;;;;;;;;;;;5107720;28;20307;-47
2023/03/24 18:03:55;;;;;;;;;;;;;;;;;;5107650;28;19919;-47
2023/03/24 18:06:21;;;;;;;;;;;;;;;;;;5108922;28;19912;-46
2023/03/24 18:08:47;;;;;;;;;;;;;;;;;;5108207;28;19915;-46
2023/03/24 18:11:13;;;;;;;;;;;;;;;;;;5107821;28;19951;-49
2023/03/24 18:13:39;;;;;;;;;;;;;;;;;;5100863;28;20662;-47
2023/03/24 18:16:06;;;;;;;;;;;;;;;;;;5108439;28;19966;-48
2023/03/24 18:18:32;;;;;;;;;;;;;;;;;;5107975;28;19912;-46
2023/03/24 18:20:58;;;;;;;;;;;;;;;;;;5108935;28;19915;-46
2023/03/24 18:23:24;;;;;;;;;;;;;;;;;;5108902;28;19912;-48
2023/03/24 18:25:50;;;;;;;;;;;;;;;;;;5108229;28;20002;-50
2023/03/24 18:28:16;;;;;;;;;;;;;;;;;;5107642;28;19911;-49
2023/03/24 18:30:42;;;;;;;;;;;;;;;;;;5108307;28;19919;-48
2023/03/24 18:33:09;;;;;;;;;;;;;;;;;;5108264;28;19912;-46
2023/03/24 18:35:35;;;;;;;;;;;;;;;;;;5106771;28;20475;-47
2023/03/24 18:38:01;;;;;;;;;;;;;;;;;;5107105;28;20010;-47
2023/03/24 18:40:27;;;;;;;;;;;;;;;;;;5107941;28;19920;-47
2023/03/24 18:42:53;;;;;;;;;;;;;;;;;;5107910;28;19920;-47
2023/03/24 18:45:19;;;;;;;;;;;;;;;;;;5108647;28;19977;-47
2023/03/24 18:47:45;;;;;;;;;;;;;;;;;;5108366;28;19919;-48
2023/03/24 18:50:11;;;;;;;;;;;;;;;;;;5108188;28;19920;-49
2023/03/24 18:52:37;;;;;;;;;;;;;;;;;;5108787;28;20020;-47
2023/03/24 18:55:03;;;;;;;;;;;;;;;;;;5108473;28;20406;-49
2023/03/24 18:57:29;;;;;;;;;;;;;;;;;;5109025;28;19915;-46
2023/03/24 18:59:56;;;;;;;;;;;;;;;;;;5108275;28;19916;-46
2023/03/24 19:02:22;;;;;;;;;;;;;;;;;;5106413;28;20475;-47
2023/03/24 19:04:48;;;;;;;;;;;;;;;;;;5110343;28;19912;-46
2023/03/24 19:07:15;;;;;;;;;;;;;;;;;;5111507;28;19908;-50
2023/03/24 19:09:41;;;;;;;;;;;;;;;;;;5111154;28;20011;-48
2023/03/24 19:12:06;;;;;;;;;;;;;;;;;;5111296;28;20003;-46
2023/03/24 19:14:33;;;;;;;;;;;;;;;;;;5123236;27;19915;-49
2023/03/24 19:17:00;;;;;;;;;;;;;;;;;;5112509;27;20374;-47
2023/03/24 19:19:30;;;;;;;;;;;;;;;;;;5112333;27;19908;-47
2023/03/24 19:21:56;;;;;;;;;;;;;;;;;;5131609;27;20343;-47
2023/03/24 19:24:22;;;;;;;;;;;;;;;;;;5131272;27;19943;-48
2023/03/24 19:26:47;;;;;;;;;;;;;;;;;;5131359;27;19990;-46
2023/03/24 19:29:13;;;;;;;;;;;;;;;;;;5131733;27;19951;-48
2023/03/24 19:31:40;;;;;;;;;;;;;;;;;;5131415;27;19915;-50
2023/03/24 19:34:06;;;;;;;;;;;;;;;;;;5131358;27;19919;-46
2023/03/24 19:36:33;;;;;;;;;;;;;;;;;;5130822;27;19929;-48
2023/03/24 19:39:00;;;;;;;;;;;;;;;;;;5130986;27;19927;-47
2023/03/24 19:41:26;;;;;;;;;;;;;;;;;;5112246;27;19994;-46
2023/03/24 19:43:52;;;;;;;;;;;;;;;;;;5131115;27;19999;-48
2023/03/24 19:46:21;;;;;;;;;;;;;;;;;;5130714;27;19915;-48
2023/03/24 19:48:47;;;;;;;;;;;;;;;;;;5131072;27;19911;-47
2023/03/24 19:51:14;;;;;;;;;;;;;;;;;;5131314;27;19918;-50
2023/03/24 19:53:41;;;;;;;;;;;;;;;;;;5130816;27;20002;-48
2023/03/24 19:56:07;;;;;;;;;;;;;;;;;;5130720;27;19950;-49
2023/03/24 19:58:33;;;;;;;;;;;;;;;;;;5129043;27;19965;-47
2023/03/24 20:00:59;;;;;;;;;;;;;;;;;;5130163;27;19919;-47
2023/03/24 20:03:27;;;;;;;;;;;;;;;;;;5127785;27;20325;-47
2023/03/24 20:05:53;;;;;;;;;;;;;;;;;;5126826;27;19951;-47
2023/03/24 20:08:19;;;;;;;;;;;;;;;;;;5127216;27;19951;-48
2023/03/24 20:10:45;;;;;;;;;;;;;;;;;;5120003;27;20015;-45
2023/03/24 20:13:11;;;;;;;;;;;;;;;;;;5125900;27;20018;-48
2023/03/24 20:15:37;;;;;;;;;;;;;;;;;;5127669;27;19917;-46
2023/03/24 20:18:04;;;;;;;;;;;;;;;;;;5127989;27;19964;-46
2023/03/24 20:20:30;;;;;;;;;;;;;;;;;;5127032;27;20351;-46
2023/03/24 20:22:57;;;;;;;;;;;;;;;;;;5126544;27;19972;-47
2023/03/24 20:25:23;;;;;;;;;;;;;;;;;;5126154;27;20736;-47
2023/03/24 20:27:49;;;;;;;;;;;;;;;;;;5126683;27;20379;-48
2023/03/24 20:30:16;;;;;;;;;;;;;;;;;;5126807;27;19974;-48
2023/03/24 20:32:42;;;;;;;;;;;;;;;;;;5108204;27;20339;-48
2023/03/24 20:35:09;;;;;;;;;;;;;;;;;;5127190;27;19908;-47
2023/03/24 20:37:36;;;;;;;;;;;;;;;;;;5127138;27;20014;-48
2023/03/24 20:40:04;;;;;;;;;;;;;;;;;;5127465;27;20046;-47
2023/03/24 20:42:29;;;;;;;;;;;;;;;;;;5107774;27;19915;-47
2023/03/24 20:44:55;;;;;;;;;;;;;;;;;;5125659;27;19916;-50
2023/03/24 20:47:21;;;;;;;;;;;;;;;;;;5126145;27;19930;-46
2023/03/24 20:49:47;;;;;;;;;;;;;;;;;;5107264;27;19912;-49
2023/03/24 20:52:13;;;;;;;;;;;;;;;;;;5107951;27;20024;-47
2023/03/24 20:54:39;;;;;;;;;;;;;;;;;;5126540;27;20024;-49
2023/03/24 20:57:05;;;;;;;;;;;;;;;;;;5127349;27;19923;-47
2023/03/24 20:59:31;;;;;;;;;;;;;;;;;;5126854;27;19915;-47
2023/03/24 21:02:00;;;;;;;;;;;;;;;;;;5125272;27;19916;-50
2023/03/24 21:04:26;;;;;;;;;;;;;;;;;;5125681;27;19923;-48
2023/03/24 21:06:53;;;;;;;;;;;;;;;;;;5126605;27;19907;-46
2023/03/24 21:09:21;;;;;;;;;;;;;;;;;;5125973;27;19934;-46
2023/03/24 21:11:47;;;;;;;;;;;;;;;;;;5125932;27;19915;-48
2023/03/24 21:14:12;;;;;;;;;;;;;;;;;;5125610;27;19949;-46
2023/03/24 21:16:38;;;;;;;;;;;;;;;;;;5125107;27;20347;-46
2023/03/24 21:19:04;;;;;;;;;;;;;;;;;;5126881;27;19919;-46
2023/03/24 21:21:30;;;;;;;;;;;;;;;;;;5125843;27;20330;-48
2023/03/24 21:23:56;;;;;;;;;;;;;;;;;;5125804;27;19919;-46
2023/03/24 21:26:22;;;;;;;;;;;;;;;;;;5124779;27;19956;-47
2023/03/24 21:28:49;;;;;;;;;;;;;;;;;;5107137;27;20431;-47
2023/03/24 21:31:15;;;;;;;;;;;;;;;;;;5125026;27;19942;-46
2023/03/24 21:33:43;;;;;;;;;;;;;;;;;;5126011;27;20562;-46
2023/03/24 21:36:09;;;;;;;;;;;;;;;;;;5125229;27;20370;-47
2023/03/24 21:38:36;;;;;;;;;;;;;;;;;;5125131;27;19958;-49
2023/03/24 21:41:02;;;;;;;;;;;;;;;;;;5126385;27;19919;-46
2023/03/24 21:43:29;;;;;;;;;;;;;;;;;;5125077;27;19938;-48